createdAt,value
2019-04-14T00:02:25.042Z,12.90
2019-04-14T00:04:57.210Z,12.63
2019-04-14T00:07:27.706Z,12.03
2019-04-14T00:09:58.551Z,11.93
2019-04-14T00:12:29.537Z,12.23
2019-04-14T00:14:59.828Z,12.07
2019-04-14T00:17:30.607Z,12.30
2019-04-14T00:20:05.614Z,12.63
2019-04-14T00:22:35.690Z,12.90
2019-04-14T00:25:08.582Z,13.03
2019-04-14T00:27:39.024Z,12.30
2019-04-14T00:30:09.786Z,13.07
2019-04-14T00:32:49.153Z,12.53
2019-04-14T00:35:27.632Z,12.50
2019-04-14T00:38:15.249Z,12.23
2019-04-14T00:41:11.504Z,12.80
2019-04-14T00:43:55.535Z,11.97
2019-04-14T00:46:33.761Z,13.20
2019-04-14T00:49:04.989Z,12.50
2019-04-14T00:51:37.736Z,12.40
2019-04-14T00:54:06.636Z,13.13
2019-04-14T00:56:36.892Z,12.87
2019-04-14T00:59:07.141Z,12.77
2019-04-14T01:01:37.260Z,12.27
2019-04-14T01:04:07.736Z,13.07
2019-04-14T01:06:38.199Z,13.47
2019-04-14T01:09:09.317Z,12.57
2019-04-14T01:11:40.204Z,13.07
2019-04-14T01:14:10.577Z,12.93
2019-04-14T01:16:40.850Z,12.47
2019-04-14T01:19:11.273Z,13.00
2019-04-14T01:21:43.512Z,13.03
2019-04-14T01:24:14.283Z,13.00
2019-04-14T01:26:44.251Z,12.57
2019-04-14T01:29:16.489Z,13.17
2019-04-14T01:31:47.311Z,13.03
2019-04-14T01:34:17.741Z,12.37
2019-04-14T01:36:49.705Z,13.10
2019-04-14T01:39:19.811Z,12.00
2019-04-14T01:41:50.000Z,12.93
2019-04-14T01:44:21.996Z,13.80
2019-04-14T01:46:52.185Z,13.30
2019-04-14T01:49:22.524Z,13.57
2019-04-14T01:52:12.522Z,14.10
2019-04-14T01:55:16.297Z,12.50
2019-04-14T01:57:56.844Z,13.20
2019-04-14T02:00:42.396Z,13.40
2019-04-14T02:03:12.774Z,13.00
2019-04-14T02:05:43.183Z,13.37
2019-04-14T02:08:15.424Z,13.80
2019-04-14T02:10:45.594Z,12.83
2019-04-14T02:13:15.718Z,12.80
2019-04-14T02:15:48.512Z,13.43
2019-04-14T02:18:20.880Z,14.43
2019-04-14T02:20:51.278Z,13.20
2019-04-14T02:23:21.510Z,13.20
2019-04-14T02:25:53.632Z,12.47
2019-04-14T02:28:24.605Z,13.13
2019-04-14T02:31:08.669Z,13.00
2019-04-14T02:33:50.621Z,12.80
2019-04-14T02:36:35.744Z,13.13
2019-04-14T02:38:54.860Z,13.03
2019-04-14T02:41:47.068Z,13.53
2019-04-14T02:44:39.962Z,14.10
2019-04-14T02:46:36.233Z,13.20
2019-04-14T02:48:58.357Z,13.60
2019-04-14T02:54:07.299Z,13.43
2019-04-14T02:59:03.691Z,13.03
2019-04-14T03:01:38.745Z,13.77
2019-04-14T03:04:08.934Z,13.00
2019-04-14T03:06:41.437Z,13.77
2019-04-14T03:14:21.529Z,13.63
2019-04-14T03:16:54.344Z,14.87
2019-04-14T03:19:56.835Z,14.73
2019-04-14T03:22:43.823Z,14.70
2019-04-14T03:25:27.802Z,15.63
2019-04-14T03:34:08.332Z,15.77
2019-04-14T03:38:50.882Z,17.43
2019-04-14T03:41:24.133Z,16.17
2019-04-14T03:43:43.115Z,16.87
2019-04-14T03:46:25.496Z,17.33
2019-04-14T03:56:33.469Z,16.93
2019-04-14T03:59:04.219Z,16.87
2019-04-14T04:01:36.646Z,17.30
2019-04-14T04:04:09.556Z,17.30
2019-04-14T04:06:42.057Z,17.27
2019-04-14T04:09:12.714Z,18.73
2019-04-14T04:11:43.478Z,18.13
2019-04-14T04:14:13.945Z,17.93
2019-04-14T04:17:10.055Z,18.97
2019-04-14T04:20:02.571Z,19.77
2019-04-14T04:22:52.280Z,20.80
2019-04-14T04:25:44.459Z,20.90
2019-04-14T04:28:37.021Z,20.40
2019-04-14T04:31:11.429Z,22.03
2019-04-14T04:33:52.282Z,22.03
2019-04-14T04:36:42.041Z,20.97
2019-04-14T04:39:17.172Z,21.43
2019-04-14T04:41:47.260Z,22.10
2019-04-14T04:44:18.318Z,20.13
2019-04-14T04:46:48.402Z,20.60
2019-04-14T04:49:23.122Z,19.83
2019-04-14T04:51:50.831Z,19.13
2019-04-14T04:54:21.881Z,19.33
2019-04-14T04:56:52.304Z,18.07
2019-04-14T04:59:23.605Z,18.23
2019-04-14T05:01:53.868Z,19.27
2019-04-14T05:04:24.367Z,18.87
2019-04-14T05:07:01.558Z,19.03
2019-04-14T05:10:09.125Z,19.73
2019-04-14T05:13:07.232Z,21.07
2019-04-14T05:15:42.423Z,21.47
2019-04-14T05:18:26.773Z,20.97
2019-04-14T05:20:57.439Z,19.87
2019-04-14T05:23:27.787Z,22.93
2019-04-14T05:25:58.801Z,20.87
2019-04-14T05:28:30.998Z,21.27
2019-04-14T05:31:01.288Z,22.47
2019-04-14T05:33:33.687Z,23.40
2019-04-14T05:36:10.669Z,23.47
2019-04-14T05:38:40.878Z,23.13
2019-04-14T05:41:11.507Z,21.10
2019-04-14T05:43:48.939Z,20.87
2019-04-14T05:46:14.541Z,21.63
2019-04-14T05:48:49.168Z,21.77
2019-04-14T05:51:23.162Z,20.53
2019-04-14T05:53:52.462Z,20.97
2019-04-14T05:56:23.488Z,21.53
2019-04-14T05:58:53.865Z,20.53
2019-04-14T06:01:34.281Z,19.57
2019-04-14T06:04:04.631Z,19.47
2019-04-14T06:06:51.109Z,20.17
2019-04-14T06:09:22.657Z,20.40
2019-04-14T06:11:52.994Z,19.70
2019-04-14T06:14:23.386Z,20.73
2019-04-14T06:16:54.765Z,21.00
2019-04-14T06:19:37.148Z,21.43
2019-04-14T06:22:00.595Z,21.87
2019-04-14T06:24:31.005Z,19.67
2019-04-14T06:27:01.426Z,19.40
2019-04-14T06:29:31.866Z,19.20
2019-04-14T06:32:16.178Z,19.43
2019-04-14T06:34:58.737Z,20.07
2019-04-14T06:37:48.377Z,19.13
2019-04-14T06:40:51.968Z,18.67
2019-04-14T06:44:11.741Z,19.83
2019-04-14T06:46:41.088Z,19.33
2019-04-14T06:49:13.542Z,19.00
2019-04-14T06:51:42.876Z,19.13
2019-04-14T06:54:12.197Z,18.60
2019-04-14T06:56:41.539Z,19.40
2019-04-14T06:59:10.953Z,19.87
2019-04-14T07:01:40.234Z,19.83
2019-04-14T07:04:09.580Z,19.30
2019-04-14T07:06:39.033Z,18.40
2019-04-14T07:09:08.358Z,19.47
2019-04-14T07:11:37.691Z,18.20
2019-04-14T07:14:07.055Z,18.30
2019-04-14T07:16:36.397Z,17.33
2019-04-14T07:19:05.696Z,18.17
2019-04-14T07:21:35.058Z,24.00
2019-04-14T07:24:04.377Z,17.77
2019-04-14T07:26:33.747Z,18.33
2019-04-14T07:29:03.101Z,18.63
2019-04-14T07:32:09.771Z,17.13
2019-04-14T07:37:42.574Z,18.97
2019-04-14T07:40:43.365Z,17.83
2019-04-14T07:43:30.410Z,17.23
2019-04-14T07:46:19.078Z,17.97
2019-04-14T07:49:04.015Z,18.47
2019-04-14T07:52:01.380Z,17.87
2019-04-14T07:54:44.317Z,17.27
2019-04-14T07:57:28.775Z,17.07
2019-04-14T08:00:06.797Z,18.50
2019-04-14T08:02:52.579Z,18.83
2019-04-14T08:05:34.253Z,18.37
2019-04-14T08:08:03.618Z,18.53
2019-04-14T08:10:32.937Z,19.73
2019-04-14T08:13:02.322Z,19.37
2019-04-14T08:15:31.665Z,19.10
2019-04-14T08:18:00.980Z,19.50
2019-04-14T08:20:30.318Z,18.63
2019-04-14T08:22:59.645Z,18.97
2019-04-14T08:25:34.978Z,20.27
2019-04-14T08:28:04.876Z,18.97
2019-04-14T08:30:34.193Z,19.33
2019-04-14T08:33:04.283Z,19.30
2019-04-14T08:35:34.504Z,19.80
2019-04-14T08:38:04.961Z,21.03
2019-04-14T08:40:35.431Z,20.90
2019-04-14T08:43:23.758Z,20.63
2019-04-14T08:46:09.616Z,20.27
2019-04-14T08:48:56.249Z,20.10
2019-04-14T08:51:49.208Z,20.17
2019-04-14T08:54:37.350Z,20.70
2019-04-14T08:57:16.970Z,19.40
2019-04-14T09:00:04.624Z,19.43
2019-04-14T09:02:52.459Z,20.37
2019-04-14T09:05:33.233Z,19.00
2019-04-14T09:08:25.569Z,19.70
2019-04-14T09:10:58.440Z,19.67
2019-04-14T09:13:28.614Z,18.60
2019-04-14T09:15:58.571Z,22.10
2019-04-14T09:18:28.669Z,20.17
2019-04-14T09:20:58.853Z,19.97
2019-04-14T09:23:28.877Z,20.57
2019-04-14T09:25:58.904Z,20.73
2019-04-14T09:28:35.021Z,21.47
2019-04-14T09:31:04.914Z,20.73
2019-04-14T09:33:35.071Z,19.50
2019-04-14T09:36:08.560Z,21.03
2019-04-14T09:38:38.706Z,20.53
2019-04-14T09:41:08.823Z,19.63
2019-04-14T09:43:39.019Z,19.53
2019-04-14T09:46:09.129Z,21.23
2019-04-14T09:48:39.194Z,21.23
2019-04-14T09:51:11.530Z,19.63
2019-04-14T09:53:41.751Z,19.87
2019-04-14T09:56:11.773Z,20.57
2019-04-14T09:58:41.643Z,20.80
2019-04-14T10:01:11.751Z,20.17
2019-04-14T10:03:41.814Z,20.57
2019-04-14T10:06:11.861Z,21.23
2019-04-14T10:08:41.895Z,21.33
2019-04-14T10:11:12.149Z,20.87
2019-04-14T10:13:42.217Z,21.67
2019-04-14T10:16:12.499Z,20.60
2019-04-14T10:18:42.440Z,20.80
2019-04-14T10:21:17.758Z,25.10
2019-04-14T10:23:44.525Z,22.73
2019-04-14T10:26:14.548Z,23.73
2019-04-14T10:28:44.557Z,23.57
2019-04-14T10:31:14.569Z,22.17
2019-04-14T10:33:44.561Z,22.97
2019-04-14T10:36:20.608Z,22.57
2019-04-14T10:38:50.631Z,22.83
2019-04-14T10:41:20.896Z,23.27
2019-04-14T10:43:50.919Z,23.20
2019-04-14T10:46:21.442Z,20.67
2019-04-14T10:48:51.489Z,23.37
2019-04-14T10:51:30.044Z,22.40
2019-04-14T10:53:53.601Z,22.60
2019-04-14T10:56:23.508Z,24.20
2019-04-14T10:58:53.665Z,21.53
2019-04-14T11:01:23.778Z,23.00
2019-04-14T11:03:53.894Z,22.10
2019-04-14T11:06:34.787Z,24.50
2019-04-14T11:09:06.921Z,21.80
2019-04-14T11:11:37.069Z,24.17
2019-04-14T11:14:07.054Z,24.33
2019-04-14T11:16:39.330Z,22.77
2019-04-14T11:19:09.484Z,22.90
2019-04-14T11:21:42.603Z,21.47
2019-04-14T11:24:11.034Z,23.00
2019-04-14T11:26:41.081Z,23.07
2019-04-14T11:29:10.970Z,23.43
2019-04-14T11:32:03.361Z,24.40
2019-04-14T11:34:55.686Z,23.43
2019-04-14T11:37:43.401Z,22.27
2019-04-14T11:40:16.899Z,22.23
2019-04-14T11:42:52.512Z,23.87
2019-04-14T11:45:18.483Z,23.43
2019-04-14T11:47:48.602Z,22.40
2019-04-14T11:50:18.751Z,23.53
2019-04-14T11:52:48.803Z,26.17
2019-04-14T11:55:18.919Z,26.00
2019-04-14T11:57:49.122Z,24.60
2019-04-14T12:00:44.280Z,25.67
2019-04-14T12:03:32.490Z,23.50
2019-04-14T12:06:25.068Z,24.83
2019-04-14T12:09:02.598Z,23.33
2019-04-14T12:11:32.339Z,24.27
2019-04-14T12:14:02.333Z,24.03
2019-04-14T12:16:32.397Z,24.67
2019-04-14T12:19:02.378Z,23.60
2019-04-14T12:21:32.452Z,24.63
2019-04-14T12:24:22.297Z,24.13
2019-04-14T12:26:52.238Z,25.17
2019-04-14T12:29:45.678Z,25.47
2019-04-14T12:32:17.221Z,25.57
2019-04-14T12:34:51.986Z,26.57
2019-04-14T12:37:32.290Z,24.80
2019-04-14T12:40:02.788Z,24.13
2019-04-14T12:42:47.138Z,24.80
2019-04-14T12:45:44.593Z,24.67
2019-04-14T12:48:23.497Z,25.03
2019-04-14T12:50:57.196Z,24.87
2019-04-14T12:53:26.602Z,25.07
2019-04-14T12:55:55.898Z,26.53
2019-04-14T12:58:44.240Z,33.97
2019-04-14T13:01:16.384Z,45.17
2019-04-14T13:03:45.796Z,29.93
2019-04-14T13:06:16.257Z,27.60
2019-04-14T13:08:47.684Z,27.13
2019-04-14T13:11:16.971Z,27.13
2019-04-14T13:13:46.281Z,28.77
2019-04-14T13:16:15.693Z,32.30
2019-04-14T13:18:47.094Z,27.90
2019-04-14T13:21:16.378Z,27.70
2019-04-14T13:23:47.781Z,27.87
2019-04-14T13:26:17.100Z,26.73
2019-04-14T13:28:46.462Z,26.23
2019-04-14T13:31:15.812Z,27.60
2019-04-14T13:33:45.165Z,26.73
2019-04-14T13:36:14.522Z,28.03
2019-04-14T13:38:43.812Z,26.80
2019-04-14T13:41:13.170Z,27.43
2019-04-14T13:43:42.993Z,26.97
2019-04-14T13:46:12.441Z,26.30
2019-04-14T13:48:44.901Z,27.33
2019-04-14T13:51:14.197Z,27.47
2019-04-14T13:53:43.873Z,28.07
2019-04-14T13:56:15.357Z,26.70
2019-04-14T13:58:45.649Z,26.73
2019-04-14T14:01:15.038Z,29.00
2019-04-14T14:03:44.779Z,28.57
2019-04-14T14:06:14.081Z,28.23
2019-04-14T14:08:43.605Z,28.17
2019-04-14T14:11:32.372Z,27.83
2019-04-14T14:14:21.224Z,30.40
2019-04-14T14:17:27.870Z,30.50
2019-04-14T14:20:05.673Z,28.97
2019-04-14T14:22:44.453Z,29.13
2019-04-14T14:25:33.340Z,28.47
2019-04-14T14:28:02.769Z,29.10
2019-04-14T14:30:32.208Z,30.07
2019-04-14T14:33:01.666Z,29.13
2019-04-14T14:35:31.045Z,29.60
2019-04-14T14:38:00.397Z,28.93
2019-04-14T14:40:29.722Z,28.20
2019-04-14T14:42:59.270Z,29.73
2019-04-14T14:45:47.494Z,29.97
2019-04-14T14:48:26.265Z,29.43
2019-04-14T14:51:14.510Z,30.63
2019-04-14T14:53:44.000Z,28.77
2019-04-14T14:56:13.333Z,30.93
2019-04-14T14:58:45.248Z,30.97
2019-04-14T15:01:13.892Z,29.90
2019-04-14T15:03:43.270Z,34.83
2019-04-14T15:06:12.642Z,30.97
2019-04-14T15:08:42.015Z,28.47
2019-04-14T15:11:12.389Z,33.20
2019-04-14T15:13:41.799Z,29.30
2019-04-14T15:16:11.157Z,31.40
2019-04-14T15:18:40.520Z,29.90
2019-04-14T15:21:09.985Z,27.80
2019-04-14T15:23:40.714Z,27.67
2019-04-14T15:26:10.063Z,28.40
2019-04-14T15:28:39.822Z,30.00
2019-04-14T15:31:09.163Z,29.83
2019-04-14T15:33:38.520Z,29.03
2019-04-14T15:36:07.935Z,29.27
2019-04-14T15:38:38.012Z,31.37
2019-04-14T15:41:07.940Z,31.10
2019-04-14T15:43:37.944Z,29.77
2019-04-14T15:46:08.033Z,31.63
2019-04-14T15:48:38.069Z,30.83
2019-04-14T15:51:08.339Z,29.27
2019-04-14T15:53:38.547Z,29.70
2019-04-14T15:56:09.990Z,30.63
2019-04-14T15:58:53.416Z,29.03
2019-04-14T16:01:40.585Z,28.13
2019-04-14T16:04:20.003Z,29.40
2019-04-14T16:07:07.291Z,29.77
2019-04-14T16:10:01.661Z,28.83
2019-04-14T16:12:41.325Z,29.37
2019-04-14T16:15:24.033Z,29.57
2019-04-14T16:18:11.340Z,31.53
2019-04-14T16:20:42.539Z,31.20
2019-04-14T16:23:12.041Z,29.90
2019-04-14T16:25:56.146Z,30.57
2019-04-14T16:28:30.499Z,29.00
2019-04-14T16:31:22.658Z,29.30
2019-04-14T16:34:25.934Z,28.87
2019-04-14T16:36:55.556Z,30.57
2019-04-14T16:39:24.949Z,28.93
2019-04-14T16:41:55.416Z,29.57
2019-04-14T16:44:24.772Z,30.10
2019-04-14T16:46:54.202Z,33.10
2019-04-14T16:49:23.622Z,30.53
2019-04-14T16:51:56.515Z,30.40
2019-04-14T16:54:56.913Z,30.80
2019-04-14T16:57:43.950Z,31.97
2019-04-14T17:00:18.046Z,30.90
2019-04-14T17:02:50.076Z,30.37
2019-04-14T17:05:18.591Z,30.70
2019-04-14T17:07:48.039Z,28.87
2019-04-14T17:10:17.505Z,29.67
2019-04-14T17:12:46.851Z,28.60
2019-04-14T17:15:47.213Z,28.63
2019-04-14T17:18:30.122Z,28.00
2019-04-14T17:21:34.982Z,28.33
2019-04-14T17:24:16.441Z,28.43
2019-04-14T17:27:00.377Z,27.63
2019-04-14T17:29:54.752Z,26.23
2019-04-14T17:32:30.441Z,28.47
2019-04-14T17:35:18.524Z,27.40
2019-04-14T17:37:53.087Z,28.77
2019-04-14T17:40:45.318Z,28.23
2019-04-14T17:43:30.891Z,31.03
2019-04-14T17:46:31.762Z,29.03
2019-04-14T17:49:23.469Z,29.77
2019-04-14T17:52:11.782Z,28.97
2019-04-14T17:54:54.353Z,28.23
2019-04-14T17:57:48.810Z,29.40
2019-04-14T18:00:26.866Z,28.77
2019-04-14T18:03:00.140Z,28.73
2019-04-14T18:05:48.441Z,29.60
2019-04-14T18:08:37.741Z,30.30
2019-04-14T18:11:25.036Z,28.47
2019-04-14T18:14:25.246Z,29.57
2019-04-14T18:17:07.039Z,30.60
2019-04-14T18:20:04.674Z,29.03
2019-04-14T18:22:34.079Z,31.40
2019-04-14T18:25:04.969Z,29.27
2019-04-14T18:27:39.240Z,31.80
2019-04-14T18:30:18.679Z,29.40
2019-04-14T18:33:10.086Z,32.70
2019-04-14T18:35:59.585Z,32.40
2019-04-14T18:38:48.938Z,32.07
2019-04-14T18:41:34.513Z,30.37
2019-04-14T18:44:22.887Z,30.57
2019-04-14T18:47:26.377Z,28.97
2019-04-14T18:50:06.550Z,30.10
2019-04-14T18:52:56.179Z,30.53
2019-04-14T18:55:44.530Z,30.00
2019-04-14T18:58:48.291Z,30.70
2019-04-14T19:01:26.233Z,30.83
2019-04-14T19:03:55.646Z,31.03
2019-04-14T19:06:25.015Z,32.43
2019-04-14T19:08:54.593Z,32.47
2019-04-14T19:11:40.581Z,31.97
2019-04-14T19:14:10.817Z,32.70
2019-04-14T19:16:46.559Z,31.30
2019-04-14T19:19:16.922Z,31.37
2019-04-14T19:21:46.361Z,31.60
2019-04-14T19:24:16.778Z,32.83
2019-04-14T19:26:46.142Z,31.43
2019-04-14T19:29:15.575Z,33.17
2019-04-14T19:31:45.955Z,33.60
2019-04-14T19:34:15.306Z,32.53
2019-04-14T19:36:44.659Z,32.77
2019-04-14T19:39:15.033Z,31.70
2019-04-14T19:41:44.398Z,32.20
2019-04-14T19:44:13.741Z,30.63
2019-04-14T19:46:43.262Z,31.57
2019-04-14T19:49:12.612Z,31.87
2019-04-14T19:51:42.049Z,30.13
2019-04-14T19:54:11.404Z,30.83
2019-04-14T19:56:40.713Z,31.40
2019-04-14T19:59:10.490Z,30.43
2019-04-14T20:01:40.849Z,31.33
2019-04-14T20:04:10.243Z,32.97
2019-04-14T20:06:39.695Z,31.37
2019-04-14T20:09:09.129Z,33.57
2019-04-14T20:11:39.098Z,31.23
2019-04-14T20:14:08.516Z,30.93
2019-04-14T20:17:04.525Z,32.43
2019-04-14T20:19:58.796Z,32.70
2019-04-14T20:22:46.044Z,30.73
2019-04-14T20:25:37.113Z,31.80
2019-04-14T20:28:19.029Z,30.07
2019-04-14T20:30:52.185Z,33.57
2019-04-14T20:33:21.595Z,32.83
2019-04-14T20:35:51.037Z,33.67
2019-04-14T20:38:20.392Z,35.60
2019-04-14T20:40:49.813Z,35.30
2019-04-14T20:43:19.149Z,33.23
2019-04-14T20:45:48.489Z,33.03
2019-04-14T20:48:17.790Z,33.27
2019-04-14T20:50:47.097Z,37.53
2019-04-14T20:53:16.514Z,32.40
2019-04-14T20:55:47.485Z,34.40
2019-04-14T20:58:17.078Z,33.10
2019-04-14T21:00:47.078Z,33.17
2019-04-14T21:03:47.437Z,32.77
2019-04-14T21:06:34.369Z,32.87
2019-04-14T21:09:32.910Z,33.73
2019-04-14T21:12:20.042Z,34.73
2019-04-14T21:14:58.186Z,33.23
2019-04-14T21:17:34.565Z,32.50
2019-04-14T21:20:21.091Z,31.50
2019-04-14T21:23:18.685Z,32.17
2019-04-14T21:26:00.926Z,32.00
2019-04-14T21:29:06.413Z,32.00
2019-04-14T21:31:43.713Z,32.60
2019-04-14T21:34:17.431Z,32.30
2019-04-14T21:37:11.769Z,32.23
2019-04-14T21:39:54.653Z,31.33
2019-04-14T21:42:24.025Z,30.23
2019-04-14T21:44:53.384Z,31.50
2019-04-14T21:47:22.664Z,30.60
2019-04-14T21:49:53.046Z,29.43
2019-04-14T21:52:50.688Z,31.17
2019-04-14T21:55:20.561Z,30.23
2019-04-14T21:58:11.729Z,31.77
2019-04-14T22:02:07.016Z,29.17
2019-04-14T22:04:58.781Z,29.00
2019-04-14T22:07:47.081Z,29.13
2019-04-14T22:10:35.221Z,28.00
2019-04-14T22:13:05.509Z,29.80
2019-04-14T22:15:34.849Z,28.87
2019-04-14T22:18:04.159Z,28.07
2019-04-14T22:20:33.487Z,29.37
2019-04-14T22:23:04.359Z,29.80
2019-04-14T22:25:33.653Z,28.13
2019-04-14T22:28:03.087Z,29.03
2019-04-14T22:30:32.994Z,29.90
2019-04-14T22:33:02.341Z,27.70
2019-04-14T22:35:31.629Z,29.00
2019-04-14T22:38:01.013Z,28.73
2019-04-14T22:40:30.297Z,29.20
2019-04-14T22:42:59.597Z,28.33
2019-04-14T22:45:28.907Z,28.53
2019-04-14T22:47:58.184Z,29.20
2019-04-14T22:50:27.529Z,29.07
2019-04-14T22:52:56.806Z,28.27
2019-04-14T22:55:26.143Z,28.83
2019-04-14T22:57:55.433Z,27.67
2019-04-14T23:00:43.097Z,27.07
2019-04-14T23:03:30.314Z,28.07
2019-04-14T23:06:24.912Z,29.23
2019-04-14T23:08:59.177Z,28.37
2019-04-14T23:11:46.469Z,29.73
2019-04-14T23:14:37.741Z,29.40
2019-04-14T23:17:27.501Z,28.50
2019-04-14T23:20:27.781Z,28.23
2019-04-14T23:23:10.513Z,28.30
2019-04-14T23:25:39.836Z,30.03
2019-04-14T23:28:09.189Z,27.47
2019-04-14T23:30:38.532Z,27.97
2019-04-14T23:33:07.881Z,28.37
2019-04-14T23:35:37.202Z,27.23
2019-04-14T23:38:06.493Z,29.53
2019-04-14T23:40:36.015Z,27.83
2019-04-14T23:43:05.801Z,28.07
2019-04-14T23:45:35.127Z,28.10
2019-04-14T23:48:05.471Z,26.67
2019-04-14T23:50:34.805Z,26.03
2019-04-14T23:53:04.133Z,28.20
2019-04-14T23:55:33.481Z,27.13
2019-04-14T23:58:02.880Z,28.57
